NCAR-RAP Real-Time Weather Data

Output produced by METARs form (17 October 2017  13:27 UTC)
found at http://weather.rap.ucar.edu/surface/
 
Conditions at: KTYQ observed 17 October 2017  13:15 UTC
Temperature: 8.6°C (47°F)
Dewpoint: 3.2°C (38°F) [RH = 69%]
Pressure (altimeter): 30.34 inches Hg (1027.5 mb)
Winds: from the SW (220 degrees) at 8 MPH (7 knots; 3.6 m/s)
Visibility: 10 or more miles (16+ km)
Ceiling: at least 12,000 feet AGL
Clouds: sky clear below 12,000 feet AGL
Present Weather: automated observation with no human augmentation;
there may or may not be significant weather present at this time
KTYQ 171315Z AUTO 22007KT 10SM CLR 09/03 A3034 RMK AO2 T00860032